Time;durP1;ratioP1;P1;durP2;ratioP2;P2;SDS_P1;SDS_P2;PMS_P1;PMS_P2;Temp;Humidity;BMP_temperature;BMP_pressure;BME280_temperature;BME280_humidity;BME280_pressure;Samples;Min_cycle;Max_cycle;Signal;HPM_P1;HPM_P2
2022/01/20 00:03:32;;;;;;;56.75;29.58;;;;;;;0.13;100.00;101603.91;4899094;29;20381;-75
2022/01/20 00:27:55;;;;;;;43.28;23.65;;;;;;;-0.54;100.00;101609.06;4887716;29;20122;-75
2022/01/20 00:33:40;;;;;;;42.45;21.52;;;;;;;-0.59;100.00;101612.28;4896933;29;20055;-75
2022/01/20 00:38:23;;;;;;;42.75;22.83;;;;;;;-0.79;100.00;101611.94;4896722;29;20060;-75
2022/01/20 00:40:54;;;;;;;54.05;25.77;;;;;;;-0.62;100.00;101601.91;4896682;29;20040;-75
2022/01/20 00:43:22;;;;;;;53.28;26.20;;;;;;;-0.31;100.00;101605.50;4898209;29;20063;-75
2022/01/20 00:45:50;;;;;;;49.63;23.20;;;;;;;-0.43;100.00;101611.31;4896491;29;20088;-75
2022/01/20 00:48:21;;;;;;;60.00;29.00;;;;;;;-0.49;100.00;101612.03;4898487;29;20407;-75
2022/01/20 00:50:49;;;;;;;57.80;26.05;;;;;;;-0.48;100.00;101618.28;4896255;29;20057;-75
2022/01/20 00:53:43;;;;;;;57.60;26.30;;;;;;;-0.54;100.00;101611.75;4896894;29;20036;-75
2022/01/20 00:56:16;;;;;;;50.85;25.38;;;;;;;-0.45;100.00;101612.53;4897070;29;20056;-75
2022/01/20 00:58:44;;;;;;;66.72;27.17;;;;;;;-0.51;100.00;101608.72;4897409;29;20056;-76
2022/01/20 01:01:14;;;;;;;57.13;26.90;;;;;;;-0.43;100.00;101607.81;4896578;29;20057;-75
2022/01/20 01:03:42;;;;;;;57.15;25.58;;;;;;;-0.41;100.00;101612.00;4897138;29;20064;-75
2022/01/20 01:06:31;;;;;;;62.15;27.23;;;;;;;-0.41;100.00;101608.47;4898336;29;20052;-75
2022/01/20 01:08:59;;;;;;;60.03;25.10;;;;;;;-0.34;100.00;101598.63;4898718;29;20079;-75
2022/01/20 01:11:27;;;;;;;54.88;24.55;;;;;;;-0.31;100.00;101586.69;4897689;29;20515;-75
2022/01/20 01:13:56;;;;;;;51.38;23.42;;;;;;;-0.23;100.00;101589.31;4898388;29;20425;-75
2022/01/20 01:16:37;;;;;;;53.72;24.33;;;;;;;-0.39;100.00;101592.97;4896984;29;20049;-75
2022/01/20 01:22:04;;;;;;;56.03;26.02;;;;;;;-0.20;100.00;101588.13;4893200;29;20057;-75
2022/01/20 01:24:32;;;;;;;55.22;24.33;;;;;;;-0.17;100.00;101585.03;4897661;29;20057;-75
2022/01/20 01:27:01;;;;;;;56.90;26.55;;;;;;;-0.24;100.00;101581.41;4897396;29;20056;-75
2022/01/20 01:30:01;;;;;;;57.67;26.00;;;;;;;-0.26;100.00;101588.84;4897517;29;20504;-75
2022/01/20 01:35:07;;;;;;;52.00;26.35;;;;;;;-0.32;100.00;101606.53;4888413;29;20412;-75
2022/01/20 01:40:12;;;;;;;56.67;25.63;;;;;;;-0.12;100.00;101595.25;4896124;29;20131;-75
2022/01/20 01:42:45;;;;;;;47.70;24.13;;;;;;;-0.18;100.00;101600.38;4895891;29;20503;-75
2022/01/20 01:45:15;;;;;;;51.15;25.17;;;;;;;-0.09;100.00;101590.38;4899854;29;20044;-75
2022/01/20 01:47:45;;;;;;;54.42;25.30;;;;;;;-0.04;100.00;101582.53;4896460;29;20052;-75
2022/01/20 01:50:17;;;;;;;;;;;;;;;-0.07;100.00;101576.69;4912261;29;20056;-75
2022/01/20 01:52:45;;;;;;;52.78;23.92;;;;;;;-0.08;100.00;101578.56;4896331;29;19931;-75
2022/01/20 01:55:14;;;;;;;53.25;24.60;;;;;;;0.09;100.00;101581.06;4897338;29;20064;-74
2022/01/20 01:57:43;;;;;;;57.30;27.00;;;;;;;0.31;100.00;101583.88;4896000;29;20056;-75
2022/01/20 02:00:18;;;;;;;51.72;26.08;;;;;;;0.16;100.00;101587.41;4896149;29;20400;-75
2022/01/20 02:02:52;;;;;;;55.08;26.75;;;;;;;0.18;100.00;101585.34;4896552;29;20064;-75
2022/01/20 02:05:32;;;;;;;49.67;24.92;;;;;;;0.35;100.00;101580.59;4895757;29;20056;-74
2022/01/20 02:08:28;;;;;;;;;;;;;;;0.43;100.00;101585.06;4896101;29;20135;-75
2022/01/20 02:19:19;;;;;;;59.28;25.90;;;;;;;0.51;100.00;101536.50;4901990;29;20056;-75
2022/01/20 02:22:01;;;;;;;54.95;25.40;;;;;;;0.45;100.00;101537.25;4902504;29;20069;-74
2022/01/20 02:24:38;;;;;;;47.63;24.55;;;;;;;0.30;100.00;101533.72;4902045;29;20068;-75
2022/01/20 02:27:06;;;;;;;53.17;25.55;;;;;;;0.22;100.00;101529.28;4886922;29;20052;-75
2022/01/20 02:29:38;;;;;;;57.03;25.25;;;;;;;0.35;100.00;101517.84;4902267;29;20049;-75
2022/01/20 02:32:09;;;;;;;56.15;26.10;;;;;;;0.25;100.00;101521.66;4902203;29;20048;-75
2022/01/20 02:34:37;;;;;;;59.05;25.90;;;;;;;0.31;100.00;101511.16;4903611;29;20048;-75
2022/01/20 02:37:11;;;;;;;57.80;25.75;;;;;;;0.30;100.00;101507.66;4901585;29;20412;-75
2022/01/20 02:45:03;;;;;;;;;;;;;;;0.37;100.00;101502.31;4901739;29;20052;-75
2022/01/20 02:47:33;;;;;;;58.72;27.33;;;;;;;0.32;100.00;101493.97;4902822;29;19935;-75
2022/01/20 02:50:01;;;;;;;57.63;26.20;;;;;;;0.25;100.00;101493.91;4901861;29;20052;-74
2022/01/20 02:52:33;;;;;;;61.40;27.30;;;;;;;0.37;100.00;101491.56;4901714;29;20051;-75
2022/01/20 02:55:01;;;;;;;61.63;27.17;;;;;;;0.38;100.00;101483.28;4902349;29;20504;-75
2022/01/20 02:57:29;;;;;;;71.55;28.60;;;;;;;0.39;100.00;101476.06;4901809;29;20489;-75
2022/01/20 02:59:57;;;;;;;57.80;25.90;;;;;;;0.44;100.00;101478.19;4903178;29;20047;-75
2022/01/20 03:02:26;;;;;;;65.63;27.38;;;;;;;0.42;100.00;101470.28;4901938;29;20532;-74
2022/01/20 03:04:54;;;;;;;66.57;29.15;;;;;;;0.37;100.00;101478.09;4901714;29;20052;-74
2022/01/20 03:07:30;;;;;;;69.75;28.00;;;;;;;0.41;100.00;101482.09;4901436;29;20056;-75
2022/01/20 03:09:58;;;;;;;71.50;28.63;;;;;;;0.28;100.00;101476.56;4900891;29;20057;-75
2022/01/20 03:12:26;;;;;;;63.25;27.95;;;;;;;0.05;100.00;101474.81;4902976;29;20048;-75
2022/01/20 03:14:54;;;;;;;64.15;27.85;;;;;;;0.29;100.00;101478.22;4901165;29;20060;-75
2022/01/20 03:17:22;;;;;;;62.67;27.13;;;;;;;0.37;100.00;101464.63;4888248;29;20060;-75
2022/01/20 03:19:49;;;;;;;69.35;29.10;;;;;;;0.38;100.00;101439.34;4902769;29;20055;-75
2022/01/20 03:22:17;;;;;;;56.13;25.05;;;;;;;0.49;100.00;101438.03;4898507;29;20044;-75
2022/01/20 03:24:45;;;;;;;63.05;27.58;;;;;;;0.47;100.00;101435.53;4898870;29;20063;-75
2022/01/20 03:27:13;;;;;;;67.22;29.00;;;;;;;0.75;100.00;101432.09;4899874;29;20039;-75
2022/01/20 03:29:42;;;;;;;71.85;28.88;;;;;;;0.73;100.00;101430.63;4898724;29;20055;-75
2022/01/20 03:32:11;;;;;;;57.70;26.63;;;;;;;0.69;100.00;101438.25;4900158;29;20049;-75
2022/01/20 03:34:39;;;;;;;71.80;29.70;;;;;;;0.76;100.00;101447.22;4882607;29;20404;-75
2022/01/20 03:37:11;;;;;;;66.10;28.30;;;;;;;0.74;100.00;101454.66;4898576;29;20420;-75
2022/01/20 03:39:48;;;;;;;55.80;25.77;;;;;;;0.65;100.00;101447.72;4898407;29;20049;-75
2022/01/20 03:42:16;;;;;;;57.83;26.25;;;;;;;0.59;100.00;101445.81;4898366;29;20422;-75
2022/01/20 03:44:44;;;;;;;66.65;27.23;;;;;;;0.48;100.00;101445.28;4900308;29;20052;-75
2022/01/20 03:47:13;;;;;;;60.92;27.67;;;;;;;0.61;100.00;101438.34;4899869;29;20063;-75
2022/01/20 03:52:29;;;;;;;57.90;27.33;;;;;;;0.72;100.00;101431.63;4898482;29;20064;-75
2022/01/20 03:54:57;;;;;;;60.45;28.40;;;;;;;0.65;100.00;101435.06;4899496;29;20040;-75
2022/01/20 03:57:25;;;;;;;61.53;27.20;;;;;;;0.70;100.00;101445.31;4899570;29;20063;-75
2022/01/20 04:00:12;;;;;;;63.00;29.15;;;;;;;0.78;100.00;101433.56;4899485;29;20044;-75
2022/01/20 04:02:41;;;;;;;58.55;28.58;;;;;;;1.12;100.00;101423.06;4913384;29;20059;-74
2022/01/20 04:05:29;;;;;;;59.45;28.67;;;;;;;1.13;100.00;101413.94;4884991;29;20056;-75
2022/01/20 04:08:33;;;;;;;63.42;28.88;;;;;;;0.95;100.00;101417.94;4897907;29;20492;-75
2022/01/20 04:11:05;;;;;;;60.70;27.05;;;;;;;1.12;100.00;101420.34;4899030;29;20049;-75
2022/01/20 04:13:34;;;;;;;55.20;26.10;;;;;;;1.01;100.00;101422.56;4898012;29;20045;-75
2022/01/20 04:16:15;;;;;;;57.15;27.40;;;;;;;1.21;100.00;101427.25;4897961;29;20498;-76
2022/01/20 04:18:53;;;;;;;55.05;27.85;;;;;;;1.07;100.00;101416.38;4910757;29;20404;-75
2022/01/20 04:21:24;;;;;;;56.65;27.17;;;;;;;0.96;100.00;101421.44;4897028;29;20056;-75
2022/01/20 04:23:53;;;;;;;56.20;25.70;;;;;;;0.92;100.00;101397.59;4894762;29;20048;-74
2022/01/20 04:26:22;;;;;;;58.90;28.20;;;;;;;0.86;100.00;101403.78;4898230;29;20064;-75
2022/01/20 04:28:56;;;;;;;55.00;25.27;;;;;;;0.81;100.00;101398.13;4897763;29;20400;-75
2022/01/20 04:31:30;;;;;;;54.78;25.65;;;;;;;0.85;100.00;101382.41;4897950;29;20593;-75
2022/01/20 04:33:59;;;;;;;56.55;25.88;;;;;;;0.87;100.00;101385.75;4897270;29;20052;-75
2022/01/20 04:36:30;;;;;;;56.72;28.10;;;;;;;0.97;100.00;101394.31;4897569;29;20056;-75
2022/01/20 04:39:01;;;;;;;65.25;27.17;;;;;;;0.96;100.00;101403.44;4897403;29;20048;-75
2022/01/20 04:41:30;;;;;;;53.70;26.33;;;;;;;0.99;100.00;101419.22;4897607;29;20053;-75
2022/01/20 04:44:06;;;;;;;60.83;26.92;;;;;;;1.16;100.00;101418.91;4896079;29;20048;-75
2022/01/20 04:47:19;;;;;;;48.85;23.88;;;;;;;1.16;100.00;101413.53;4897834;29;20040;-75
2022/01/20 04:57:49;;;;;;;50.83;24.75;;;;;;;0.83;100.00;101435.66;4897037;29;20481;-74
2022/01/20 05:00:17;;;;;;;52.83;25.88;;;;;;;0.92;100.00;101439.88;4896662;29;20480;-74
2022/01/20 05:03:05;;;;;;;60.38;26.20;;;;;;;0.89;100.00;101424.94;4898622;29;20056;-75
2022/01/20 05:05:34;;;;;;;54.13;26.23;;;;;;;0.86;100.00;101424.50;4900798;29;20052;-75
2022/01/20 05:08:11;;;;;;;55.60;26.65;;;;;;;0.79;100.00;101425.25;4896875;29;20496;-75
2022/01/20 05:10:39;;;;;;;56.60;25.75;;;;;;;0.85;100.00;101439.84;4896777;29;20059;-75
2022/01/20 05:13:22;;;;;;;59.58;27.10;;;;;;;0.82;100.00;101450.19;4896843;29;20435;-75
2022/01/20 05:15:51;;;;;;;53.35;25.88;;;;;;;1.07;100.00;101450.59;4889757;29;20497;-75
2022/01/20 05:18:19;;;;;;;55.30;26.40;;;;;;;1.06;100.00;101462.41;4906345;29;20036;-75
2022/01/20 05:20:47;;;;;;;51.80;24.90;;;;;;;1.21;100.00;101454.22;4897432;29;20047;-74
2022/01/20 05:23:15;;;;;;;50.45;26.25;;;;;;;1.13;100.00;101452.50;4897327;29;20060;-74
2022/01/20 05:25:44;;;;;;;58.42;27.80;;;;;;;1.28;100.00;101452.41;4897550;29;20048;-74
2022/01/20 05:28:14;;;;;;;56.58;28.20;;;;;;;1.44;100.00;101450.44;4896284;29;20060;-74
2022/01/20 05:30:42;;;;;;;54.63;26.67;;;;;;;1.32;100.00;101440.19;4896452;29;20495;-74
2022/01/20 05:33:13;;;;;;;49.67;26.27;;;;;;;1.34;100.00;101438.16;4887923;29;20048;-74
2022/01/20 05:35:43;;;;;;;51.40;25.55;;;;;;;1.22;100.00;101445.09;4893140;29;20048;-74
2022/01/20 05:38:12;;;;;;;52.78;25.40;;;;;;;1.24;100.00;101440.34;4896636;29;20045;-74
2022/01/20 05:40:42;;;;;;;54.95;27.45;;;;;;;1.54;100.00;101437.44;4895170;29;20495;-74
2022/01/20 05:43:09;;;;;;;56.75;26.27;;;;;;;1.47;100.00;101439.28;4897245;29;20053;-74
2022/01/20 05:45:39;;;;;;;53.70;27.40;;;;;;;1.30;100.00;101450.38;4893639;29;20139;-74
2022/01/20 05:48:11;;;;;;;55.03;25.23;;;;;;;1.52;100.00;101461.06;4880990;29;20045;-74
2022/01/20 05:50:59;;;;;;;63.70;28.77;;;;;;;1.57;100.00;101455.91;4895288;29;20218;-74
2022/01/20 05:53:27;;;;;;;58.92;26.70;;;;;;;1.61;100.00;101459.06;4895747;29;20047;-75
2022/01/20 05:55:55;;;;;;;62.85;27.00;;;;;;;1.45;100.00;101462.91;4895934;29;20056;-74
2022/01/20 05:58:23;;;;;;;56.55;28.30;;;;;;;1.61;100.00;101465.28;4896337;29;20488;-75
2022/01/20 06:00:54;;;;;;;68.40;28.20;;;;;;;1.66;100.00;101463.88;4895398;29;20052;-73
2022/01/20 06:03:37;;;;;;;65.05;28.30;;;;;;;1.73;100.00;101472.84;4895916;29;20049;-76
2022/01/20 06:06:24;;;;;;;65.43;27.70;;;;;;;1.45;100.00;101465.59;4895704;29;20056;-73
2022/01/20 06:08:53;;;;;;;58.80;27.38;;;;;;;1.30;100.00;101457.59;4896045;29;20051;-74
2022/01/20 06:11:21;;;;;;;60.00;27.67;;;;;;;1.23;100.00;101460.28;4895858;29;20053;-73
2022/01/20 06:13:51;;;;;;;67.38;28.30;;;;;;;1.43;100.00;101451.47;4895928;29;20052;-73
2022/01/20 06:16:19;;;;;;;65.78;27.42;;;;;;;1.59;100.00;101451.19;4894733;29;20064;-74
2022/01/20 06:18:48;;;;;;;61.30;27.67;;;;;;;1.58;100.00;101460.31;4893833;29;20069;-80
2022/01/20 06:21:17;;;;;;;53.60;26.63;;;;;;;1.63;100.00;101458.88;4877115;29;20049;-71
2022/01/20 06:23:47;;;;;;;64.68;29.25;;;;;;;1.58;100.00;101463.00;4892107;29;20422;-71
2022/01/20 06:26:17;;;;;;;60.03;28.73;;;;;;;1.47;100.00;101458.97;4894374;29;20064;-70
2022/01/20 06:28:45;;;;;;;57.03;27.38;;;;;;;1.44;100.00;101464.78;4892707;29;20045;-71
2022/01/20 06:31:16;;;;;;;62.33;27.75;;;;;;;1.34;100.00;101457.03;4892425;29;20408;-71
2022/01/20 06:33:47;;;;;;;57.45;25.38;;;;;;;1.39;100.00;101459.13;4892186;29;20052;-71
2022/01/20 06:36:15;;;;;;;58.05;26.75;;;;;;;1.27;100.00;101442.66;4894805;29;20053;-71
2022/01/20 06:38:43;;;;;;;61.13;27.45;;;;;;;1.25;100.00;101442.03;4879346;29;20397;-71
2022/01/20 06:41:11;;;;;;;63.60;29.13;;;;;;;1.46;100.00;101461.88;4895062;29;20512;-80
2022/01/20 06:43:39;;;;;;;67.43;31.15;;;;;;;1.72;100.00;101460.38;4879767;29;20052;-72
2022/01/20 06:46:07;;;;;;;62.35;28.15;;;;;;;1.71;100.00;101464.94;4894698;29;20048;-72
2022/01/20 06:48:56;;;;;;;58.97;27.30;;;;;;;1.55;100.00;101460.69;4896314;29;20048;-71
2022/01/20 06:51:36;;;;;;;55.75;27.38;;;;;;;1.60;100.00;101462.78;4893101;29;20049;-74
2022/01/20 06:54:04;;;;;;;62.17;27.33;;;;;;;1.67;100.00;101452.03;4892402;29;20075;-72
2022/01/20 06:56:34;;;;;;;54.67;26.92;;;;;;;1.72;100.00;101438.78;4894191;29;20048;-72
2022/01/20 06:59:16;;;;;;;52.53;25.52;;;;;;;1.56;100.00;101434.56;4899403;29;20418;-72
2022/01/20 07:01:46;;;;;;;56.88;27.17;;;;;;;1.47;100.00;101440.09;4897430;29;20051;-72
2022/01/20 07:04:20;;;;;;;57.90;27.00;;;;;;;1.52;100.00;101447.59;4899158;29;20063;-72
2022/01/20 07:06:48;;;;;;;59.35;27.33;;;;;;;1.72;100.00;101458.50;4899613;29;20064;-72
2022/01/20 07:09:35;;;;;;;62.75;30.52;;;;;;;1.60;100.00;101455.53;4896981;29;20067;-72
2022/01/20 07:12:12;;;;;;;52.00;24.40;;;;;;;1.56;100.00;101459.66;4897089;29;20044;-72
2022/01/20 07:14:40;;;;;;;54.83;25.00;;;;;;;1.56;100.00;101456.16;4899125;29;20056;-72
2022/01/20 07:17:08;;;;;;;53.97;25.50;;;;;;;1.55;100.00;101449.06;4899403;29;20052;-73
2022/01/20 07:19:38;;;;;;;59.38;26.27;;;;;;;1.47;100.00;101460.84;4895017;29;20056;-72
2022/01/20 07:22:07;;;;;;;59.90;26.25;;;;;;;1.58;100.00;101463.00;4897695;29;20048;-73
2022/01/20 07:24:36;;;;;;;57.67;26.60;;;;;;;1.65;100.00;101446.03;4894401;29;20052;-72
2022/01/20 07:27:15;;;;;;;57.33;27.73;;;;;;;1.65;100.00;101446.03;4895562;29;20049;-73
2022/01/20 07:29:44;;;;;;;65.80;27.63;;;;;;;1.68;100.00;101442.91;4890259;29;20040;-72
2022/01/20 07:32:13;;;;;;;58.92;27.15;;;;;;;1.82;100.00;101454.63;4896927;29;20048;-73
2022/01/20 07:34:41;;;;;;;51.83;24.67;;;;;;;1.90;100.00;101462.53;4894282;29;20055;-72
2022/01/20 07:37:09;;;;;;;62.53;27.05;;;;;;;1.99;100.00;101457.81;4898119;29;20488;-73
2022/01/20 07:39:37;;;;;;;52.92;26.58;;;;;;;1.98;100.00;101466.94;4885354;29;20052;-73
2022/01/20 07:42:05;;;;;;;55.72;26.80;;;;;;;2.04;100.00;101462.63;4907070;29;20056;-72
2022/01/20 07:45:12;;;;;;;56.78;26.90;;;;;;;1.82;100.00;101460.88;4895796;29;20063;-73
2022/01/20 07:47:48;;;;;;;57.80;27.35;;;;;;;1.80;100.00;101457.50;4875236;29;20045;-73
2022/01/20 07:50:16;;;;;;;58.92;28.33;;;;;;;2.01;100.00;101472.78;4895966;29;20431;-73
2022/01/20 07:52:45;;;;;;;60.22;27.23;;;;;;;2.10;100.00;101475.31;4895675;29;20045;-72
2022/01/20 07:55:14;;;;;;;61.90;27.63;;;;;;;2.20;100.00;101470.34;4896169;29;20373;-73
2022/01/20 07:57:42;;;;;;;61.17;27.73;;;;;;;2.08;100.00;101472.81;4897335;29;20052;-73
2022/01/20 08:00:11;;;;;;;57.28;26.13;;;;;;;1.90;100.00;101477.91;4896976;29;20048;-73
2022/01/20 08:02:45;;;;;;;51.35;25.48;;;;;;;1.87;100.00;101469.16;4898641;29;20411;-73
2022/01/20 08:05:29;;;;;;;51.88;25.92;;;;;;;2.00;100.00;101457.63;4897178;29;20503;-73
2022/01/20 08:07:57;;;;;;;48.13;23.92;;;;;;;2.06;100.00;101450.59;4895677;29;20052;-73
2022/01/20 08:10:25;;;;;;;49.90;24.20;;;;;;;2.17;100.00;101456.44;4897320;29;20044;-73
2022/01/20 08:12:54;;;;;;;43.63;20.55;;;;;;;2.30;100.00;101461.91;4897195;29;20063;-73
2022/01/20 08:15:25;;;;;;;43.80;21.48;;;;;;;2.37;100.00;101456.50;4894719;29;20420;-73
2022/01/20 08:18:14;;;;;;;50.88;22.90;;;;;;;2.17;100.00;101461.81;4896570;29;20064;-73
2022/01/20 08:20:42;;;;;;;47.20;21.48;;;;;;;2.06;100.00;101455.16;4896990;29;20053;-73
2022/01/20 08:23:12;;;;;;;48.00;22.38;;;;;;;2.11;100.00;101442.69;4896770;29;20056;-73
2022/01/20 08:25:42;;;;;;;58.60;25.95;;;;;;;2.06;100.00;101434.38;4911103;29;20052;-71
2022/01/20 08:28:12;;;;;;;53.20;23.80;;;;;;;2.14;100.00;101452.25;4897314;29;20530;-73
2022/01/20 08:30:41;;;;;;;54.55;24.90;;;;;;;2.22;100.00;101462.91;4897506;29;20492;-73
2022/01/20 08:33:10;;;;;;;51.38;23.17;;;;;;;2.20;100.00;101475.75;4897249;29;20048;-73
2022/01/20 08:35:51;;;;;;;47.65;22.40;;;;;;;2.50;100.00;101482.72;4895087;29;20060;-74
2022/01/20 08:38:26;;;;;;;59.88;26.17;;;;;;;2.69;100.00;101487.34;4897200;29;20057;-74
2022/01/20 08:40:54;;;;;;;55.38;25.48;;;;;;;2.67;100.00;101488.59;4896393;29;20045;-73
2022/01/20 08:43:22;;;;;;;53.92;25.17;;;;;;;2.70;100.00;101482.78;4896451;29;20064;-74
2022/01/20 08:45:51;;;;;;;50.72;24.60;;;;;;;2.78;100.00;101489.84;4894521;29;20381;-73
2022/01/20 08:48:21;;;;;;;55.45;25.23;;;;;;;3.12;100.00;101490.72;4898076;29;20056;-74
2022/01/20 08:51:24;;;;;;;49.50;23.58;;;;;;;3.52;100.00;101470.94;4900864;29;20412;-71
2022/01/20 08:54:04;;;;;;;69.80;43.75;;;;;;;3.26;100.00;101477.19;4896534;29;20496;-70
2022/01/20 08:56:34;;;;;;;50.75;24.40;;;;;;;3.12;100.00;101458.28;4896288;29;20044;-72
2022/01/20 08:59:05;;;;;;;54.42;24.00;;;;;;;3.18;100.00;101468.25;4896558;29;20076;-72
2022/01/20 09:01:35;;;;;;;48.38;23.45;;;;;;;3.13;100.00;101470.75;4897998;29;20059;-73
2022/01/20 09:04:04;;;;;;;54.63;24.45;;;;;;;3.33;100.00;101465.34;4896306;29;20411;-71
2022/01/20 09:06:33;;;;;;;45.75;23.63;;;;;;;3.18;100.00;101467.44;4896396;29;20102;-73
2022/01/20 09:09:20;;;;;;;56.70;24.33;;;;;;;3.17;100.00;101477.41;4897046;29;20048;-73
2022/01/20 09:12:04;;;;;;;56.10;23.67;;;;;;;3.32;100.00;101476.38;4896158;29;20052;-72
2022/01/20 09:17:19;;;;;;;50.47;24.50;;;;;;;3.25;100.00;101476.38;4895652;29;20057;-72
2022/01/20 09:19:48;;;;;;;52.45;24.77;;;;;;;3.25;100.00;101467.41;4895048;29;20052;-72
2022/01/20 09:22:17;;;;;;;52.05;24.20;;;;;;;3.29;100.00;101469.53;4896035;29;20044;-72
2022/01/20 09:24:45;;;;;;;55.25;26.30;;;;;;;3.48;100.00;101467.00;4895944;29;20392;-73
2022/01/20 09:27:15;;;;;;;50.60;25.70;;;;;;;3.56;100.00;101463.25;4896071;29;20044;-73
2022/01/20 09:29:45;;;;;;;56.45;26.83;;;;;;;3.47;100.00;101455.34;4895799;29;20057;-72
2022/01/20 09:32:16;;;;;;;59.28;26.85;;;;;;;3.56;100.00;101452.41;4896106;29;20041;-73
2022/01/20 09:34:45;;;;;;;60.60;25.67;;;;;;;3.70;100.00;101464.03;4896280;29;20041;-73
2022/01/20 09:37:14;;;;;;;61.67;28.83;;;;;;;3.87;100.00;101451.69;4895869;29;20048;-73
2022/01/20 09:39:46;;;;;;;59.95;25.35;;;;;;;3.62;100.00;101452.38;4889644;29;20056;-73
2022/01/20 09:42:35;;;;;;;57.15;26.40;;;;;;;3.67;100.00;101451.75;4895524;29;20048;-73
2022/01/20 09:45:06;;;;;;;58.65;27.75;;;;;;;3.58;100.00;101450.31;4894495;29;20048;-73
2022/01/20 09:47:37;;;;;;;62.95;26.60;;;;;;;3.74;100.00;101444.47;4891041;29;20061;-73
2022/01/20 09:50:37;;;;;;;57.83;25.55;;;;;;;3.80;100.00;101450.88;4889987;29;20079;-73
2022/01/20 09:53:38;;;;;;;59.25;26.42;;;;;;;3.69;100.00;101454.25;4901725;29;20052;-73
2022/01/20 09:56:19;;;;;;;59.70;27.85;;;;;;;3.85;100.00;101455.66;4892470;29;20047;-73
2022/01/20 09:58:48;;;;;;;65.88;27.92;;;;;;;4.15;100.00;101453.25;4893952;29;20052;-73
2022/01/20 10:01:41;;;;;;;62.13;27.52;;;;;;;4.21;100.00;101448.84;4882967;29;20064;-73
2022/01/20 10:04:38;;;;;;;56.78;25.30;;;;;;;4.20;100.00;101436.34;4894303;29;20057;-72
2022/01/20 10:07:16;;;;;;;61.30;28.20;;;;;;;4.20;100.00;101430.94;4877048;29;20060;-72
2022/01/20 10:09:55;;;;;;;59.25;27.20;;;;;;;4.08;100.00;101438.06;4893240;29;20508;-72
2022/01/20 10:12:38;;;;;;;57.92;27.85;;;;;;;4.07;100.00;101444.53;4889092;29;20045;-72
2022/01/20 10:15:29;;;;;;;62.28;29.00;;;;;;;4.05;100.00;101427.69;4893580;29;20052;-70
2022/01/20 10:18:13;;;;;;;58.60;27.63;;;;;;;4.12;100.00;101431.19;4893798;29;20057;-70
2022/01/20 10:20:57;;;;;;;55.50;26.17;;;;;;;4.26;100.00;101423.84;4885979;29;20512;-71
2022/01/20 10:23:48;;;;;;;61.50;27.75;;;;;;;4.37;100.00;101430.44;4881804;29;20492;-73
2022/01/20 10:26:40;;;;;;;60.75;27.65;;;;;;;4.33;100.00;101423.78;4892137;29;20052;-71
2022/01/20 10:29:12;;;;;;;57.17;27.38;;;;;;;4.30;100.00;101408.78;4882845;29;20508;-71
2022/01/20 10:31:46;;;;;;;59.17;27.70;;;;;;;4.33;100.00;101407.53;4886593;29;20068;-73
2022/01/20 10:34:30;;;;;;;62.10;29.67;;;;;;;4.52;100.00;101394.91;4897578;29;20052;-71
2022/01/20 10:37:14;;;;;;;57.42;29.20;;;;;;;4.55;100.00;101389.88;4893193;29;20048;-71
2022/01/20 10:40:08;;;;;;;68.40;29.55;;;;;;;4.70;100.00;101383.31;4911392;29;20061;-73
2022/01/20 10:42:42;;;;;;;68.30;32.92;;;;;;;4.62;100.00;101389.81;4896713;29;20396;-73
2022/01/20 10:45:24;;;;;;;;;;;;;;;4.86;99.63;101391.94;4899254;29;20146;-74
2022/01/20 10:47:54;;;;;;;67.60;32.08;;;;;;;4.60;100.00;101382.97;4898161;29;19954;-73
2022/01/20 10:50:27;;;;;;;69.78;33.70;;;;;;;4.79;100.00;101389.28;4894696;29;20056;-74
2022/01/20 10:53:19;;;;;;;60.38;29.05;;;;;;;5.00;100.00;101382.66;4885602;29;20049;-73
2022/01/20 10:55:49;;;;;;;61.60;29.95;;;;;;;5.02;99.64;101366.97;4890921;29;20052;-69
2022/01/20 10:58:22;;;;;;;57.65;29.48;;;;;;;4.97;99.05;101354.06;4897109;29;20036;-69
2022/01/20 11:00:56;;;;;;;61.10;29.92;;;;;;;4.88;98.72;101360.00;4891617;29;20050;-72
2022/01/20 11:03:27;;;;;;;60.42;31.02;;;;;;;4.95;99.17;101348.03;4896655;29;20055;-69
2022/01/20 11:05:59;;;;;;;60.05;31.73;;;;;;;4.70;100.00;101348.06;4896701;29;20052;-69
2022/01/20 11:08:40;;;;;;;70.57;34.22;;;;;;;4.81;100.00;101330.22;4885809;29;20053;-73
2022/01/20 11:11:10;;;;;;;69.35;35.30;;;;;;;4.75;100.00;101331.97;4894430;29;20049;-73
2022/01/20 11:13:53;;;;;;;69.95;35.67;;;;;;;4.77;100.00;101337.97;4896999;29;20371;-73
2022/01/20 11:16:21;;;;;;;70.03;37.13;;;;;;;4.75;100.00;101340.09;4886989;29;20491;-72
2022/01/20 11:18:50;;;;;;;76.78;37.65;;;;;;;4.56;100.00;101345.44;4894678;29;20056;-72
2022/01/20 11:21:25;;;;;;;78.07;37.63;;;;;;;4.68;100.00;101339.28;4897029;29;20048;-71
2022/01/20 11:23:55;;;;;;;73.53;38.00;;;;;;;4.64;100.00;101335.38;4896877;29;20055;-71
2022/01/20 11:26:57;;;;;;;77.90;34.92;;;;;;;4.56;100.00;101326.47;4896847;29;20060;-71
2022/01/20 11:29:40;;;;;;;72.30;34.28;;;;;;;4.49;100.00;101314.03;4887992;29;20080;-71
2022/01/20 11:32:33;;;;;;;73.05;33.80;;;;;;;4.53;100.00;101321.50;4895937;29;20048;-71
2022/01/20 11:35:19;;;;;;;74.15;34.85;;;;;;;4.51;100.00;101310.06;4897631;29;20067;-71
2022/01/20 11:37:58;;;;;;;71.25;33.78;;;;;;;4.46;100.00;101301.75;4899010;29;20068;-71
2022/01/20 11:40:26;;;;;;;75.15;34.50;;;;;;;4.44;100.00;101299.25;4899115;29;20396;-73
2022/01/20 11:43:05;;;;;;;74.18;35.08;;;;;;;4.28;100.00;101292.50;4897678;29;20052;-72
2022/01/20 11:45:46;;;;;;;81.05;36.63;;;;;;;4.19;100.00;101287.56;4897593;29;20526;-73
2022/01/20 11:48:20;;;;;;;79.15;35.95;;;;;;;4.28;100.00;101286.25;4892413;29;20068;-73
2022/01/20 11:51:00;;;;;;;;;;;;;;;4.20;100.00;101290.03;4897680;29;20045;-72
2022/01/20 11:53:28;;;;;;;75.80;34.60;;;;;;;4.09;100.00;101290.75;4897129;29;19942;-73
2022/01/20 11:55:56;;;;;;;71.45;35.38;;;;;;;4.12;100.00;101272.19;4898559;29;20054;-72
2022/01/20 11:58:25;;;;;;;81.68;36.53;;;;;;;4.25;100.00;101271.25;4897168;29;20059;-72
2022/01/20 12:01:04;;;;;;;79.30;36.65;;;;;;;4.25;100.00;101273.16;4897584;29;20052;-72
2022/01/20 12:03:34;;;;;;;80.50;38.67;;;;;;;4.24;100.00;101261.47;4897592;29;20404;-72
2022/01/20 12:06:13;;;;;;;79.78;38.10;;;;;;;4.29;100.00;101250.81;4897278;29;20400;-72
2022/01/20 12:09:01;;;;;;;80.53;38.97;;;;;;;4.38;100.00;101234.25;4897886;29;20059;-72
2022/01/20 12:11:35;;;;;;;;;;;;;;;4.27;100.00;101224.97;4897469;29;20037;-71
2022/01/20 12:14:06;;;;;;;83.55;39.47;;;;;;;4.38;100.00;101220.69;4896231;29;19923;-71
2022/01/20 12:16:35;;;;;;;90.82;40.97;;;;;;;4.39;100.00;101214.22;4894906;29;20063;-72
2022/01/20 12:19:09;;;;;;;95.68;43.20;;;;;;;4.47;100.00;101205.81;4896453;29;20403;-72
2022/01/20 12:21:45;;;;;;;94.63;42.63;;;;;;;4.53;100.00;101202.22;4896968;29;20052;-72
2022/01/20 12:24:13;;;;;;;93.38;41.95;;;;;;;4.67;100.00;101207.50;4897022;29;20052;-73
2022/01/20 12:26:41;;;;;;;94.70;45.30;;;;;;;4.62;100.00;101200.06;4896708;29;20056;-73
2022/01/20 12:29:10;;;;;;;87.03;41.97;;;;;;;4.83;100.00;101195.22;4896979;29;20500;-72
2022/01/20 12:31:52;;;;;;;101.65;44.10;;;;;;;4.73;100.00;101190.31;4896853;29;20044;-72
2022/01/20 12:34:21;;;;;;;103.38;45.55;;;;;;;4.84;100.00;101192.28;4897070;29;20060;-72
2022/01/20 12:36:53;;;;;;;105.82;44.47;;;;;;;4.95;100.00;101187.16;4896528;29;20049;-73
2022/01/20 12:39:34;;;;;;;102.40;44.67;;;;;;;4.94;100.00;101186.34;4893564;29;20064;-72
2022/01/20 12:42:08;;;;;;;106.15;45.10;;;;;;;4.98;100.00;101184.84;4895583;29;20504;-71
2022/01/20 12:45:55;;;;;;;;;;;;;;;5.04;100.00;101196.66;4896467;29;20057;-86